Time,TemperatureF,DewpointF,PressureIn,WindDirection,WindDirectionDegrees,WindSpeedMPH,WindSpeedGustMPH,Humidity,HourlyPrecipIn,Conditions,Clouds,dailyrainin,SoftwareType,DateUTC
2013-03-24 00:03:00,29.0,22.0,30.05,NE,38,1.0,3.0,76,0.00,,,0.00,,2013-03-24 04:03:00,
2013-03-24 00:13:00,29.0,22.0,30.05,NE,38,1.0,3.0,76,0.00,,,0.00,,2013-03-24 04:13:00,
2013-03-24 00:23:00,28.0,22.0,30.04,ENE,64,1.0,3.0,77,0.00,,,0.00,,2013-03-24 04:23:00,
2013-03-24 00:33:00,28.0,22.0,30.03,NNE,20,1.0,3.0,78,0.00,,,0.00,,2013-03-24 04:33:00,
2013-03-24 00:43:00,28.0,22.0,30.03,NNE,20,1.0,3.0,78,0.00,,,0.00,,2013-03-24 04:43:00,
2013-03-24 00:53:00,28.0,22.0,30.03,NE,40,0.0,3.0,78,0.00,,,0.00,,2013-03-24 04:53:00,
2013-03-24 01:03:00,27.0,21.0,30.03,NE,51,0.0,2.0,79,0.00,,,0.00,,2013-03-24 05:03:00,
2013-03-24 01:13:00,27.0,21.0,30.03,NE,51,0.0,2.0,79,0.00,,,0.00,,2013-03-24 05:13:00,
2013-03-24 01:23:00,27.0,22.0,30.02,NE,36,0.0,2.0,80,0.00,,,0.00,,2013-03-24 05:23:00,
2013-03-24 01:32:00,27.0,22.0,30.01,NNE,26,1.0,4.0,81,0.00,,,0.00,,2013-03-24 05:32:00,
2013-03-24 01:43:00,27.0,22.0,30.01,NNE,26,1.0,4.0,81,0.00,,,0.00,,2013-03-24 05:43:00,
2013-03-24 01:52:00,27.0,23.0,30.01,NE,37,1.0,4.0,83,0.00,,,0.00,,2013-03-24 05:52:00,
2013-03-24 02:02:00,27.0,23.0,30.02,ENE,63,0.0,1.0,83,0.00,,,0.00,,2013-03-24 06:02:00,
2013-03-24 02:12:00,27.0,23.0,30.02,ENE,63,0.0,1.0,83,0.00,,,0.00,,2013-03-24 06:12:00,
2013-03-24 02:22:00,26.0,22.0,30.03,ENE,62,0.0,1.0,84,0.00,,,0.00,,2013-03-24 06:22:00,
2013-03-24 02:32:00,26.0,22.0,30.03,ENE,63,0.0,1.0,85,0.00,,,0.00,,2013-03-24 06:32:00,
2013-03-24 02:42:00,26.0,22.0,30.03,ENE,63,0.0,1.0,85,0.00,,,0.00,,2013-03-24 06:42:00,
2013-03-24 02:52:00,25.0,22.0,30.02,ENE,58,0.0,3.0,87,0.00,,,0.00,,2013-03-24 06:52:00,
2013-03-24 03:02:00,26.0,23.0,30.01,NNE,26,1.0,3.0,88,0.00,,,0.00,,2013-03-24 07:02:00,
2013-03-24 03:12:00,26.0,23.0,30.01,NNE,26,1.0,3.0,88,0.00,,,0.00,,2013-03-24 07:12:00,
2013-03-24 03:22:00,26.0,23.0,30.01,North,8,0.0,3.0,87,0.00,,,0.00,,2013-03-24 07:22:00,
2013-03-24 03:32:00,26.0,23.0,30.01,NNE,27,0.0,1.0,87,0.00,,,0.00,,2013-03-24 07:32:00,
2013-03-24 03:42:00,26.0,23.0,30.01,NNE,27,0.0,1.0,87,0.00,,,0.00,,2013-03-24 07:42:00,
2013-03-24 03:52:00,25.0,22.0,30.02,NNE,27,0.0,0.0,87,0.00,,,0.00,,2013-03-24 07:52:00,
2013-03-24 04:03:00,24.0,21.0,30.02,NNE,12,0.0,2.0,89,0.00,,,0.00,,2013-03-24 08:03:00,
2013-03-24 04:12:00,24.0,21.0,30.02,NNE,12,0.0,2.0,89,0.00,,,0.00,,2013-03-24 08:12:00,
2013-03-24 04:22:00,25.0,22.0,30.02,North,353,1.0,2.0,89,0.00,,,0.00,,2013-03-24 08:22:00,
2013-03-24 04:32:00,25.0,22.0,30.01,NE,35,1.0,3.0,89,0.00,,,0.00,,2013-03-24 08:32:00,
2013-03-24 04:42:00,25.0,22.0,30.01,NE,35,1.0,3.0,89,0.00,,,0.00,,2013-03-24 08:42:00,
2013-03-24 04:52:00,26.0,23.0,30.01,NE,37,0.0,3.0,88,0.00,,,0.00,,2013-03-24 08:52:00,
2013-03-24 05:02:00,26.0,23.0,30.00,North,11,2.0,5.0,88,0.00,,,0.00,,2013-03-24 09:02:00,
2013-03-24 05:12:00,26.0,23.0,30.00,North,11,2.0,5.0,88,0.00,,,0.00,,2013-03-24 09:12:00,
2013-03-24 05:22:00,26.0,23.0,29.99,NE,37,2.0,4.0,88,0.00,,,0.00,,2013-03-24 09:22:00,
2013-03-24 05:33:00,26.0,23.0,29.98,NE,49,1.0,3.0,88,0.00,,,0.00,,2013-03-24 09:33:00,
2013-03-24 05:42:00,26.0,23.0,29.98,NE,49,1.0,3.0,88,0.00,,,0.00,,2013-03-24 09:42:00,
2013-03-24 05:52:00,26.0,23.0,29.98,NE,47,1.0,2.0,88,0.00,,,0.00,,2013-03-24 09:52:00,
2013-03-24 06:03:00,26.0,23.0,29.99,NE,54,0.0,2.0,88,0.00,,,0.00,,2013-03-24 10:03:00,
2013-03-24 06:12:00,26.0,23.0,29.99,NE,54,0.0,2.0,88,0.00,,,0.00,,2013-03-24 10:12:00,
2013-03-24 06:23:00,26.0,23.0,29.99,NNE,33,0.0,1.0,88,0.00,,,0.00,,2013-03-24 10:23:00,
2013-03-24 06:33:00,26.0,23.0,29.98,North,4,1.0,3.0,88,0.00,,,0.00,,2013-03-24 10:33:00,
2013-03-24 06:42:00,26.0,23.0,29.98,North,4,1.0,3.0,88,0.00,,,0.00,,2013-03-24 10:42:00,
2013-03-24 06:52:00,26.0,23.0,29.99,NE,49,0.0,5.0,87,0.00,,,0.00,,2013-03-24 10:52:00,
2013-03-24 07:03:00,27.0,24.0,29.99,North,8,1.0,4.0,87,0.00,,,0.00,,2013-03-24 11:03:00,
2013-03-24 07:12:00,27.0,24.0,29.99,North,8,1.0,4.0,87,0.00,,,0.00,,2013-03-24 11:12:00,
2013-03-24 07:22:00,27.0,24.0,29.98,NNE,26,1.0,4.0,88,0.00,,,0.00,,2013-03-24 11:22:00,
2013-03-24 07:33:00,27.0,24.0,29.97,East,98,1.0,4.0,88,0.00,,,0.00,,2013-03-24 11:33:00,
2013-03-24 07:42:00,27.0,24.0,29.97,East,98,1.0,4.0,88,0.00,,,0.00,,2013-03-24 11:42:00,
2013-03-24 07:52:00,27.0,24.0,29.97,NE,37,1.0,5.0,88,0.00,,,0.00,,2013-03-24 11:52:00,
2013-03-24 08:03:00,27.0,24.0,29.97,ESE,111,1.0,5.0,87,0.00,,,0.00,,2013-03-24 12:03:00,
2013-03-24 08:12:00,27.0,24.0,29.97,ESE,111,1.0,5.0,87,0.00,,,0.00,,2013-03-24 12:12:00,
2013-03-24 08:22:00,27.0,24.0,29.97,ENE,57,3.0,6.0,87,0.00,,,0.00,,2013-03-24 12:22:00,
2013-03-24 08:32:00,27.0,23.0,29.96,NE,37,3.0,9.0,86,0.00,,,0.00,,2013-03-24 12:32:00,
2013-03-24 08:42:00,27.0,23.0,29.96,NE,37,3.0,9.0,86,0.00,,,0.00,,2013-03-24 12:42:00,
2013-03-24 08:52:00,28.0,24.0,29.96,NE,38,4.0,7.0,86,0.00,,,0.00,,2013-03-24 12:52:00,
2013-03-24 09:02:00,28.0,24.0,29.96,ENE,60,3.0,6.0,86,0.00,,,0.00,,2013-03-24 13:02:00,
2013-03-24 09:13:00,28.0,24.0,29.96,ENE,60,3.0,6.0,86,0.00,,,0.00,,2013-03-24 13:13:00,
2013-03-24 09:22:00,28.0,24.0,29.94,East,101,4.0,9.0,86,0.00,,,0.00,,2013-03-24 13:22:00,
2013-03-24 09:32:00,29.0,25.0,29.94,ENE,71,4.0,7.0,86,0.00,,,0.00,,2013-03-24 13:32:00,
2013-03-24 09:42:00,29.0,25.0,29.94,ENE,71,4.0,7.0,86,0.00,,,0.00,,2013-03-24 13:42:00,
2013-03-24 09:52:00,30.0,26.0,29.93,North,9,5.0,9.0,85,0.00,,,0.00,,2013-03-24 13:52:00,
2013-03-24 10:02:00,30.0,26.0,29.91,NE,53,4.0,11.0,85,0.00,,,0.00,,2013-03-24 14:02:00,
2013-03-24 10:12:00,30.0,26.0,29.91,NE,53,4.0,11.0,85,0.00,,,0.00,,2013-03-24 14:12:00,
2013-03-24 10:22:00,30.0,26.0,29.90,ESE,117,5.0,11.0,85,0.00,,,0.00,,2013-03-24 14:22:00,
2013-03-24 10:33:00,30.0,26.0,29.89,East,88,7.0,14.0,84,0.00,,,0.00,,2013-03-24 14:33:00,
2013-03-24 10:42:00,30.0,26.0,29.89,East,88,7.0,14.0,84,0.00,,,0.00,,2013-03-24 14:42:00,
2013-03-24 10:52:00,30.0,26.0,29.90,NE,37,6.0,12.0,84,0.00,,,0.00,,2013-03-24 14:52:00,
2013-03-24 11:02:00,30.0,26.0,29.90,NNE,33,5.0,12.0,84,0.00,,,0.00,,2013-03-24 15:02:00,
2013-03-24 11:12:00,30.0,26.0,29.90,NNE,33,5.0,12.0,84,0.00,,,0.00,,2013-03-24 15:12:00,
2013-03-24 11:22:00,30.0,25.0,29.91,NE,56,4.0,10.0,83,0.00,,,0.00,,2013-03-24 15:22:00,
2013-03-24 11:33:00,31.0,26.0,29.89,NE,53,6.0,11.0,82,0.00,,,0.00,,2013-03-24 15:33:00,
2013-03-24 11:43:00,31.0,26.0,29.89,NE,53,6.0,11.0,82,0.00,,,0.00,,2013-03-24 15:43:00,
2013-03-24 11:53:00,31.0,25.0,29.87,NE,51,7.0,15.0,79,0.00,,,0.00,,2013-03-24 15:53:00,
2013-03-24 12:03:00,32.0,25.0,29.86,NE,51,6.0,14.0,76,0.00,,,0.00,,2013-03-24 16:03:00,
2013-03-24 12:13:00,32.0,25.0,29.86,NE,51,6.0,14.0,76,0.00,,,0.00,,2013-03-24 16:13:00,
2013-03-24 12:23:00,32.0,24.0,29.86,NE,40,6.0,16.0,72,0.00,,,0.00,,2013-03-24 16:23:00,
2013-03-24 12:33:00,32.0,24.0,29.86,NE,40,6.0,16.0,72,0.00,,,0.00,,2013-03-24 16:33:00,
2013-03-24 12:42:00,32.0,24.0,29.86,NE,40,6.0,16.0,72,0.00,,,0.00,,2013-03-24 16:42:00,
2013-03-24 12:52:00,33.0,24.0,29.86,ENE,69,4.0,13.0,69,0.00,,,0.00,,2013-03-24 16:52:00,
2013-03-24 13:03:00,33.0,23.0,29.82,NNE,12,12.0,19.0,67,0.00,,,0.00,,2013-03-24 17:03:00,
2013-03-24 13:12:00,33.0,23.0,29.82,NNE,12,12.0,19.0,67,0.00,,,0.00,,2013-03-24 17:12:00,
2013-03-24 13:23:00,33.0,23.0,29.83,ENE,67,7.0,15.0,67,0.00,,,0.00,,2013-03-24 17:23:00,
2013-03-24 13:33:00,33.0,23.0,29.83,ENE,67,6.0,14.0,67,0.00,,,0.00,,2013-03-24 17:33:00,
2013-03-24 13:42:00,33.0,23.0,29.83,ENE,67,6.0,14.0,67,0.00,,,0.00,,2013-03-24 17:42:00,
2013-03-24 13:52:00,33.0,24.0,29.81,East,87,4.0,13.0,68,0.00,,,0.00,,2013-03-24 17:52:00,
2013-03-24 14:03:00,33.0,24.0,29.80,NNE,26,5.0,15.0,69,0.00,,,0.00,,2013-03-24 18:03:00,
2013-03-24 14:12:00,33.0,24.0,29.80,NNE,26,5.0,15.0,69,0.00,,,0.00,,2013-03-24 18:12:00,
2013-03-24 14:22:00,33.0,25.0,29.80,ENE,71,6.0,12.0,72,0.00,,,0.00,,2013-03-24 18:22:00,
2013-03-24 14:33:00,33.0,25.0,29.79,NNE,33,7.0,17.0,72,0.00,,,0.00,,2013-03-24 18:33:00,
2013-03-24 14:43:00,33.0,25.0,29.79,NNE,33,7.0,17.0,72,0.00,,,0.00,,2013-03-24 18:43:00,
2013-03-24 14:52:00,34.0,26.0,29.79,ENE,70,6.0,12.0,71,0.00,,,0.00,,2013-03-24 18:52:00,
2013-03-24 15:03:00,34.0,25.0,29.78,ENE,64,9.0,16.0,70,0.00,,,0.00,,2013-03-24 19:03:00,
2013-03-24 15:12:00,34.0,25.0,29.78,ENE,64,9.0,16.0,70,0.00,,,0.00,,2013-03-24 19:12:00,
2013-03-24 15:22:00,34.0,25.0,29.77,East,91,8.0,17.0,68,0.00,,,0.00,,2013-03-24 19:22:00,
2013-03-24 15:32:00,34.0,25.0,29.78,NE,51,8.0,21.0,69,0.00,,,0.00,,2013-03-24 19:32:00,
2013-03-24 15:43:00,34.0,25.0,29.78,NE,51,8.0,21.0,69,0.00,,,0.00,,2013-03-24 19:43:00,
2013-03-24 15:53:00,34.0,25.0,29.76,ENE,63,7.0,14.0,69,0.00,,,0.00,,2013-03-24 19:53:00,
2013-03-24 16:03:00,34.0,25.0,29.76,ENE,65,6.0,12.0,70,0.00,,,0.00,,2013-03-24 20:03:00,
2013-03-24 16:12:00,34.0,25.0,29.76,ENE,65,6.0,12.0,70,0.00,,,0.00,,2013-03-24 20:12:00,
2013-03-24 16:22:00,34.0,24.0,29.75,East,94,6.0,15.0,67,0.00,,,0.00,,2013-03-24 20:22:00,
2013-03-24 16:32:00,33.0,23.0,29.73,SE,127,6.0,14.0,66,0.00,,,0.00,,2013-03-24 20:32:00,
2013-03-24 16:42:00,33.0,23.0,29.73,SE,127,6.0,14.0,66,0.00,,,0.00,,2013-03-24 20:42:00,
2013-03-24 16:53:00,33.0,23.0,29.73,ESE,122,3.0,12.0,66,0.00,,,0.00,,2013-03-24 20:53:00,
2013-03-24 17:03:00,33.0,23.0,29.72,NE,56,8.0,15.0,66,0.00,,,0.00,,2013-03-24 21:03:00,
2013-03-24 17:12:00,33.0,23.0,29.72,NE,56,8.0,15.0,66,0.00,,,0.00,,2013-03-24 21:12:00,
2013-03-24 17:22:00,33.0,23.0,29.71,NE,37,3.0,15.0,67,0.00,,,0.00,,2013-03-24 21:22:00,
2013-03-24 17:33:00,33.0,23.0,29.70,NNE,19,7.0,13.0,65,0.00,,,0.00,,2013-03-24 21:33:00,
2013-03-24 17:43:00,33.0,23.0,29.70,NNE,19,7.0,13.0,65,0.00,,,0.00,,2013-03-24 21:43:00,
2013-03-24 17:53:00,33.0,23.0,29.68,NE,34,5.0,17.0,66,0.00,,,0.00,,2013-03-24 21:53:00,
2013-03-24 18:03:00,33.0,23.0,29.67,ENE,75,7.0,14.0,67,0.00,,,0.00,,2013-03-24 22:03:00,
2013-03-24 18:13:00,33.0,23.0,29.67,ENE,75,7.0,14.0,67,0.00,,,0.00,,2013-03-24 22:13:00,
2013-03-24 18:23:00,33.0,24.0,29.65,ENE,61,7.0,19.0,69,0.00,,,0.00,,2013-03-24 22:23:00,
2013-03-24 18:33:00,33.0,25.0,29.67,ENE,73,5.0,15.0,71,0.00,,,0.00,,2013-03-24 22:33:00,
2013-03-24 18:43:00,33.0,25.0,29.67,ENE,73,5.0,15.0,71,0.00,,,0.00,,2013-03-24 22:43:00,
2013-03-24 18:52:00,33.0,25.0,29.67,ENE,67,7.0,13.0,72,0.00,,,0.00,,2013-03-24 22:52:00,
2013-03-24 19:03:00,32.0,24.0,29.66,NNE,33,5.0,17.0,73,0.00,,,0.00,,2013-03-24 23:03:00,
2013-03-24 19:12:00,32.0,24.0,29.66,NNE,33,5.0,17.0,73,0.00,,,0.00,,2013-03-24 23:12:00,
2013-03-24 19:22:00,32.0,25.0,29.65,NNE,27,7.0,15.0,75,0.00,,,0.00,,2013-03-24 23:22:00,
2013-03-24 19:32:00,32.0,25.0,29.65,NE,47,5.0,14.0,76,0.00,,,0.00,,2013-03-24 23:32:00,
2013-03-24 19:42:00,32.0,25.0,29.65,NE,47,5.0,14.0,76,0.00,,,0.00,,2013-03-24 23:42:00,
2013-03-24 19:52:00,32.0,26.0,29.64,NNE,15,4.0,14.0,77,0.00,,,0.00,,2013-03-24 23:52:00,
2013-03-24 20:02:00,32.0,22.0,29.65,SE,125,5.0,17.0,66,0.00,,,0.00,,2013-03-25 00:02:00,
2013-03-24 20:12:00,32.0,22.0,29.65,SE,125,5.0,17.0,66,0.00,,,0.00,,2013-03-25 00:12:00,
2013-03-24 20:22:00,32.0,22.0,29.65,ENE,63,7.0,16.0,67,0.00,,,0.00,,2013-03-25 00:22:00,
2013-03-24 20:32:00,32.0,23.0,29.65,North,9,7.0,16.0,69,0.00,,,0.00,,2013-03-25 00:32:00,
2013-03-24 20:42:00,32.0,23.0,29.65,North,9,7.0,16.0,69,0.00,,,0.00,,2013-03-25 00:42:00,
2013-03-24 20:52:00,32.0,23.0,29.65,NNE,26,4.0,15.0,69,0.00,,,0.00,,2013-03-25 00:52:00,
2013-03-24 21:02:00,32.0,23.0,29.65,NE,53,9.0,12.0,68,0.00,,,0.00,,2013-03-25 01:02:00,
2013-03-24 21:12:00,32.0,23.0,29.65,NE,53,9.0,12.0,68,0.00,,,0.00,,2013-03-25 01:12:00,
2013-03-24 21:22:00,32.0,23.0,29.64,NNE,33,7.0,14.0,68,0.00,,,0.00,,2013-03-25 01:22:00,
2013-03-24 21:32:00,32.0,23.0,29.64,NNE,22,5.0,16.0,68,0.00,,,0.00,,2013-03-25 01:32:00,
2013-03-24 21:42:00,32.0,23.0,29.64,NNE,22,5.0,16.0,68,0.00,,,0.00,,2013-03-25 01:42:00,
2013-03-24 21:52:00,32.0,23.0,29.64,NNE,22,5.0,16.0,68,0.00,,,0.00,,2013-03-25 01:52:00,
2013-03-24 22:02:00,32.0,24.0,29.63,NE,39,7.0,19.0,71,0.00,,,0.00,,2013-03-25 02:02:00,
2013-03-24 22:12:00,32.0,24.0,29.63,NE,39,7.0,19.0,71,0.00,,,0.00,,2013-03-25 02:12:00,
2013-03-24 22:23:00,32.0,24.0,29.62,NNW,342,4.0,15.0,71,0.00,,,0.00,,2013-03-25 02:23:00,
2013-03-24 22:33:00,32.0,24.0,29.62,NNE,16,5.0,17.0,72,0.00,,,0.00,,2013-03-25 02:33:00,
2013-03-24 22:42:00,32.0,24.0,29.62,NNE,16,5.0,17.0,72,0.00,,,0.00,,2013-03-25 02:42:00,
2013-03-24 22:52:00,32.0,24.0,29.62,ENE,67,6.0,19.0,72,0.00,,,0.00,,2013-03-25 02:52:00,
2013-03-24 23:03:00,32.0,24.0,29.61,NNE,33,7.0,19.0,72,0.00,,,0.00,,2013-03-25 03:03:00,
2013-03-24 23:13:00,32.0,24.0,29.61,NNE,33,7.0,19.0,72,0.00,,,0.00,,2013-03-25 03:13:00,
2013-03-24 23:23:00,32.0,24.0,29.60,North,352,6.0,17.0,73,0.00,,,0.00,,2013-03-25 03:23:00,
2013-03-24 23:34:00,31.0,23.0,29.60,ENE,63,8.0,14.0,73,0.00,,,0.00,,2013-03-25 03:34:00,
2013-03-24 23:43:00,31.0,23.0,29.60,ENE,63,8.0,14.0,73,0.00,,,0.00,,2013-03-25 03:43:00,
2013-03-24 23:53:00,31.0,23.0,29.59,NE,42,7.0,16.0,73,0.00,,,0.00,,2013-03-25 03:53:00,